LERSLELL

Guest
Details From LERS - Reus
To LELL - Sabadell
Flight Number -
Tags Generated
Created
Modified
Stats Distance 48 nm / 90 km
Max Altitude 0 ft / 0 m
Waypoints 2
Social Downloads 2
Likes 0
Share VATSIM

Download

Looking for another format? Having issues loading an existing format? Contact us
Advertisement - Login to hide

Notes

Generated

Route

LERS LELL

ID Type Via Altitude Latitude Longitude Leg Dist Tot Dist Heading (true) Name
O LERS APT - 0 ft / 0 m 41.14306˚ 1.15458˚ - 0 nm - -
O LELL APT - 0 ft / 0 m 41.52445˚ 2.09912˚ 48 nm 48 nm 61° / 62° Sabadell

Altitude Profile

Advertisement - Login to hide

LERS

Details ICAO LERS (REU)
Name Reus
Region Spain
Timezone Europe/Madrid (UTC+2.0)
Stats Elevation 0 ft / 0 m (AMSL)
Location 41.144615° 1.165505°
Runways 2
Magnetic Variation 0.641° E

METAR

LERS 251830Z 09011KT 050V140 CAVOK 21/15 Q1013

Decode

TAF

TAF LERS 251400Z 2515/2615 09016KT 9999 FEW040 TX26/2613Z TN18/2606Z TEMPO 2515/2518 09020G30KT BECMG 2518/2520 05008KT TEMPO 2601/2607 BKN018 BECMG 2610/2612 09012KT

Decode

Departure Runways

ID Width Length Bearing (true) Bearing (mag) Surface Threshold Offset Overrun Length
12 115 ft / 35 m 3,120 ft / 951 m 290.95° 290.31° Grass 0 ft / 0 m 0 ft / 0 m
25 148 ft / 45 m 8,062 ft / 2,457 m 248.91° 248.27° Asphalt 0 ft / 0 m 0 ft / 0 m
30 115 ft / 35 m 3,120 ft / 951 m 110.95° 110.31° Grass 0 ft / 0 m 0 ft / 0 m
7 148 ft / 45 m 8,062 ft / 2,457 m 68.89° 68.25° Asphalt 883 ft / 269 m 0 ft / 0 m

LELL

Details ICAO LELL (QSA)
Name Sabadell
Region Spain
Timezone Europe/Madrid (UTC+2.0)
Stats Elevation 465 ft / 142 m (AMSL)
Location 41.520977° 2.104912°
Runways 1
Magnetic Variation 0.871° E

METAR

LELL 251830Z 08009KT 020V120 CAVOK 22/10 Q1014

Decode

TAF

TAF LELL 251400Z 2515/2615 08009KT 9999 FEW030 TX26/2613Z TN16/2606Z TEMPO 2515/2520 09014G28KT TEMPO 2611/2615 10014G28KT

Decode

Destination Runways

ID Width Length Bearing (true) Bearing (mag) Surface Threshold Offset Overrun Length
13 98 ft / 30 m 2,956 ft / 901 m 127.50° 126.63° Asphalt 0 ft / 0 m 0 ft / 0 m
31 98 ft / 30 m 2,956 ft / 901 m 307.50° 306.63° Asphalt 0 ft / 0 m 0 ft / 0 m

Popular Alternatives